Flight Track Log - Related Links

Times and Time Zones

All times are in EDT time to prevent confusion due to time zone crossing. See the N2075T flight status page for this flight to view local times or setup timezone preferences in your user account.

Time Position Orientation Groundspeed Altitude Reporting Facility
EDT Latitude Longitude Course Direction KTS MPH feet Rate Location/Type
Fri 01:58:46 PM 41.3850 -70.9250 256° West 129 148 3,000  Level Boston Center
Fri 02:00:03 PM 41.3786 -70.9886 262° West 130 150 3,000  Level Boston Center
Fri 02:01:19 PM 41.3733 -71.0469 263° West 129 148 3,000  Level Boston Center
Fri 02:02:20 PM 41.3703 -71.0944 265° West 129 148 3,000  Level Boston Center
Fri 02:03:00 PM 41.6150 -70.7343 256° West  Level FlightAware Approximate
Fri 02:03:14 PM 41.3661 -71.1361 262° West 130 150 3,000  Level Boston Center
Fri 02:04:00 PM 41.6071 -70.7776 256° West  Level FlightAware Approximate
Fri 02:04:10 PM 41.3614 -71.1803 262° West 131 151 3,000  Level Boston Center
Fri 02:05:10 PM 41.3567 -71.2244 262° West 127 146 3,000  Level Boston Center
Fri 02:06:11 PM 41.3519 -71.2800 264° West 130 150 3,000  Level Boston Center
Fri 02:07:23 PM 41.3464 -71.3383 263° West 133 153 3,000  Level Boston Center
Fri 02:08:06 PM 41.3439 -71.3717 264° West 130 150 3,000  Level Boston Center
Fri 02:09:18 PM 41.3389 -71.4272 263° West 130 150 3,000  Level Boston Center
Fri 02:10:10 PM 41.3347 -71.4686 262° West 134 154 3,000  Level Boston Center
Fri 02:11:17 PM 41.3289 -71.5181 261° West 132 152 3,000  Level Boston Center
Fri 02:12:11 PM 41.3228 -71.5678 261° West 128 147 3,000 -50 Level Boston Center
Fri 02:13:18 PM 41.3183 -71.6206 264° West 126 145 2,900  Descending Boston Center
Fri 02:14:12 PM 41.3136 -71.6647 262° West 133 153 3,000 50 Climbing Boston Center
Fri 02:15:19 PM 41.3103 -71.7122 265° West 119 137 3,000  Level Boston Center
Fri 02:16:13 PM 41.3067 -71.7597 264° West 151 174 3,000  Level Boston Center
Fri 02:17:21 PM 41.3011 -71.8064 261° West 132 152 3,000  Level Boston Center
Fri 02:18:22 PM 41.2972 -71.8567 264° West 123 142 3,000  Level Boston Center
Fri 02:19:29 PM 41.2900 -71.9114 260° West 127 146 3,000  Level Boston Center
Fri 02:20:23 PM 41.2864 -71.9589 264° West 131 151 3,000  Level Boston Center
Fri 02:21:32 PM 41.2831 -72.0061 265° West 130 150 3,000  Level Boston Center
Fri 02:22:33 PM 41.2775 -72.0531 261° West 129 148 3,000  Level Boston Center
Fri 02:23:34 PM 41.2717 -72.0997 261° West 129 148 3,000  Level Boston Center
Fri 02:24:40 PM 41.2658 -72.1578 262° West 131 151 3,000  Level Boston Center
Fri 02:25:41 PM 41.2611 -72.2106 263° West 134 154 3,000  Level Boston Center
Fri 02:26:41 PM 41.2556 -72.2572 261° West 127 146 3,000 33 Level Boston Center
Fri 02:28:42 PM 41.2500 -72.3500 265° West 131 151 3,100 33 Climbing New York TRACON
Fri 02:29:42 PM 41.2333 -72.4000 246° West 131 151 3,100  Level New York TRACON
Fri 02:30:43 PM 41.2333 -72.4500 270° West 133 153 3,100  Level New York TRACON
Fri 02:31:37 PM 41.2333 -72.5000 270° West 133 153 3,100  Level New York TRACON
Fri 02:32:37 PM 41.2333 -72.5333 270° West 132 152 3,100  Level New York TRACON
Fri 02:33:37 PM 41.2167 -72.5833 246° West 132 152 3,100  Level New York TRACON
Fri 02:34:43 PM 41.2167 -72.6500 270° West 132 152 3,100  Level New York TRACON
Fri 02:35:43 PM 41.2167 -72.6833 270° West 129 148 3,100  Level New York TRACON
Fri 02:36:43 PM 41.2000 -72.7333 246° West 131 151 3,100  Level New York TRACON
Fri 02:37:37 PM 41.2000 -72.7833 270° West 128 147 3,100  Level New York TRACON
Fri 02:39:00 PM 41.1873 -72.8596 258° West  Level FlightAware Approximate
Fri 02:46:00 PM 41.1500 -73.1167 259° West  Level FlightAware Approximate
Fri 02:47:00 PM 41.1635 -73.1262 332° Northwest  Level Estimated
Fri 02:48:00 PM 41.1635 -73.1262 North  Level Estimated
Fri 02:49:00 PM 41.1635 -73.1262 North  Level Estimated

Login

Don't have an account? Register now (free) for customized features, flight alerts, and more!